Terminal Aerodrome Forecast
Issued by NWS

Home | Current Version | Previous Version | Text Only | Print | Product List | Glossary On
Versions: 1 2 3 4 5 6 7 8 9 10 11 12 13
000
FTUS46 KMTR 020500
TAFSTS
TAF
KSTS 020534Z 0206/0306 15003KT P6SM SKC
     FM020700 00000KT P6SM SKC
     FM021900 19005KT P6SM SKC
     FM022200 18010KT P6SM SKC
     FM030400 15005KT P6SM SKC=

USA.gov is the U.S. government's official web portal to all federal, state and local government web resources and services.